Terminal Aerodrome Forecast
Issued by NWS

Current Version | Previous Version | Text Only | Print | Product List | Glossary On
Versions: 1 2 3 4 5 6 7 8 9 10 11 12
000
FTUS45 KREV 201134
TAFCXP
TAF
KCXP 201134Z 2012/2112 25005KT P6SM BKN050 OVC120
     FM202200 15007KT P6SM BKN060 OVC100
     FM210400 VRB04KT P6SM SCT060 BKN140=

USA.gov is the U.S. government's official web portal to all federal, state and local government web resources and services.